Time;durP1;ratioP1;P1;durP2;ratioP2;P2;SDS_P1;SDS_P2;PMS_P1;PMS_P2;Temp;Humidity;BMP_temperature;BMP_pressure;BME280_temperature;BME280_humidity;BME280_pressure;Samples;Min_cycle;Max_cycle;Signal;HPM_P1;HPM_P2
2022/06/09 00:01:44;;;;;;;4.43;3.80;;;;;;;14.31;90.39;100225.06;5079684;28;20127;-77
2022/06/09 00:04:12;;;;;;;3.40;3.10;;;;;;;14.31;90.33;100228.63;5064149;28;20036;-77
2022/06/09 00:06:48;;;;;;;3.85;3.47;;;;;;;14.31;90.37;100223.09;5069206;28;20076;-77
2022/06/09 00:09:15;;;;;;;3.83;3.42;;;;;;;14.34;90.49;100236.28;5075042;28;20040;-82
2022/06/09 00:11:45;;;;;;;5.35;3.95;;;;;;;14.44;89.86;100229.72;5073670;28;20518;-73
2022/06/09 00:14:11;;;;;;;5.13;4.05;;;;;;;14.54;90.21;100218.38;5100203;27;20040;-80
2022/06/09 00:16:37;;;;;;;5.35;4.13;;;;;;;14.61;90.74;100218.75;5091562;28;20101;-79
2022/06/09 00:19:03;;;;;;;6.13;4.05;;;;;;;14.62;89.98;100230.59;5088541;28;20058;-75
2022/06/09 00:21:29;;;;;;;3.88;3.35;;;;;;;14.55;89.36;100224.72;5086561;28;20494;-78
2022/06/09 00:23:54;;;;;;;5.35;3.72;;;;;;;14.56;89.58;100232.66;5072940;28;20043;-77
2022/06/09 00:26:20;;;;;;;4.85;3.92;;;;;;;14.61;89.39;100229.78;5072457;28;20037;-77
2022/06/09 00:28:46;;;;;;;5.05;3.78;;;;;;;14.68;89.57;100226.56;5054648;28;20044;-78
2022/06/09 00:31:12;;;;;;;5.75;3.85;;;;;;;14.73;89.22;100226.41;5073129;28;20119;-80
2022/06/09 00:33:37;;;;;;;5.80;4.18;;;;;;;14.80;89.74;100220.44;5086986;28;20089;-77
2022/06/09 00:36:03;;;;;;;5.60;4.28;;;;;;;14.81;89.77;100222.06;5076837;28;20113;-78
2022/06/09 00:38:29;;;;;;;5.80;4.25;;;;;;;14.81;90.13;100222.88;5092059;28;20052;-78
2022/06/09 00:40:59;;;;;;;6.05;4.55;;;;;;;14.82;90.39;100218.16;5087925;28;21850;-79
2022/06/09 00:43:26;;;;;;;4.72;3.72;;;;;;;14.86;90.24;100224.69;5084662;28;20036;-78
2022/06/09 00:45:57;;;;;;;5.68;4.47;;;;;;;14.82;90.04;100215.41;5082121;28;20040;-78
2022/06/09 00:48:30;;;;;;;5.32;4.15;;;;;;;14.80;90.02;100223.22;5091873;28;20036;-78
2022/06/09 00:51:02;;;;;;;6.60;4.28;;;;;;;14.76;90.38;100232.13;5086251;28;20557;-81
2022/06/09 00:53:32;;;;;;;5.45;4.28;;;;;;;14.74;90.29;100228.03;5072507;28;20032;-76
2022/06/09 00:55:59;;;;;;;6.15;5.07;;;;;;;14.69;90.93;100229.00;5084906;28;20077;-81
2022/06/09 00:58:27;;;;;;;5.82;4.40;;;;;;;14.67;90.95;100242.31;5090792;28;20066;-70
2022/06/09 01:00:59;;;;;;;6.25;5.07;;;;;;;14.71;90.54;100240.53;5083190;28;20114;-71
2022/06/09 01:03:29;;;;;;;5.78;4.68;;;;;;;14.69;90.71;100242.00;5089625;28;20039;-70
2022/06/09 01:06:02;;;;;;;8.50;5.22;;;;;;;14.65;90.74;100236.31;5071795;28;20037;-72
2022/06/09 01:08:29;;;;;;;5.47;4.93;;;;;;;14.62;91.23;100228.66;5072001;28;20028;-71
2022/06/09 01:10:54;;;;;;;6.07;5.05;;;;;;;14.55;91.45;100220.00;5074017;28;20458;-71
2022/06/09 01:13:20;;;;;;;5.47;4.55;;;;;;;14.53;91.68;100222.25;5078728;28;20039;-71
2022/06/09 01:16:07;;;;;;;6.25;4.70;;;;;;;14.54;91.39;100225.84;5070057;28;20055;-71
2022/06/09 01:18:51;;;;;;;7.78;5.05;;;;;;;14.55;91.75;100225.53;5072417;28;20502;-72
2022/06/09 01:21:42;;;;;;;6.18;4.72;;;;;;;14.49;91.94;100221.28;5076748;28;20042;-71
2022/06/09 01:24:16;;;;;;;5.95;4.78;;;;;;;14.44;92.70;100216.72;5091673;28;20043;-71
2022/06/09 01:26:52;;;;;;;7.95;5.55;;;;;;;14.44;92.20;100218.66;5091639;28;20036;-71
2022/06/09 01:29:37;;;;;;;8.43;4.85;;;;;;;14.45;92.91;100209.25;5077331;28;20434;-71
2022/06/09 01:32:13;;;;;;;5.88;5.03;;;;;;;14.45;92.96;100203.72;5071321;28;20130;-71
2022/06/09 01:34:47;;;;;;;7.72;5.15;;;;;;;14.40;93.07;100201.88;5103865;28;20119;-72
2022/06/09 01:37:30;;;;;;;5.88;4.90;;;;;;;14.35;92.81;100199.25;5069897;28;20055;-71
2022/06/09 01:39:58;;;;;;;5.80;4.55;;;;;;;14.36;93.47;100198.13;5071129;28;20423;-71
2022/06/09 01:42:36;;;;;;;5.55;4.68;;;;;;;14.36;93.38;100200.06;5070939;28;20044;-71
2022/06/09 01:45:03;;;;;;;6.78;5.30;;;;;;;14.39;93.53;100204.94;5071318;28;20043;-71
2022/06/09 01:48:01;;;;;;;6.80;5.05;;;;;;;14.44;93.83;100202.09;5071160;28;20044;-71
2022/06/09 01:50:43;;;;;;;6.40;4.80;;;;;;;14.48;93.38;100197.56;5069928;28;20049;-71
2022/06/09 01:53:12;;;;;;;5.30;4.80;;;;;;;14.50;93.56;100198.06;5071895;28;20040;-71
2022/06/09 01:55:42;;;;;;;5.13;4.60;;;;;;;14.52;93.08;100200.50;5069539;28;20044;-71
2022/06/09 01:58:11;;;;;;;6.88;5.18;;;;;;;14.52;93.58;100194.97;5070155;28;20036;-71
2022/06/09 02:00:37;;;;;;;6.10;4.57;;;;;;;14.52;93.31;100195.78;5088088;28;20470;-71
2022/06/09 02:03:06;;;;;;;7.35;5.32;;;;;;;14.56;93.90;100187.69;5091530;28;20036;-70
2022/06/09 02:05:37;;;;;;;6.75;5.25;;;;;;;14.55;93.99;100186.88;5089228;28;20067;-71
2022/06/09 02:08:05;;;;;;;5.72;4.97;;;;;;;14.55;93.92;100195.16;5073435;28;20085;-71
2022/06/09 02:10:37;;;;;;;7.47;5.20;;;;;;;14.56;93.54;100188.50;5076656;28;20128;-71
2022/06/09 02:13:06;;;;;;;6.50;5.57;;;;;;;14.56;93.36;100194.00;5090836;28;20558;-71
2022/06/09 02:15:39;;;;;;;6.57;4.55;;;;;;;14.56;93.41;100194.00;5074153;28;20113;-71
2022/06/09 02:18:08;;;;;;;6.47;5.53;;;;;;;14.59;93.47;100198.94;5074174;28;20136;-71
2022/06/09 02:20:34;;;;;;;7.15;5.18;;;;;;;14.60;93.21;100200.56;5073843;28;20407;-71
2022/06/09 02:23:00;;;;;;;6.30;5.13;;;;;;;14.64;93.95;100198.78;5073915;28;20040;-71
2022/06/09 02:25:25;;;;;;;5.72;5.15;;;;;;;14.66;93.63;100193.75;5087434;28;20040;-71
2022/06/09 02:27:51;;;;;;;6.72;5.43;;;;;;;14.67;94.27;100192.59;5094080;28;20043;-71
2022/06/09 02:30:17;;;;;;;6.70;5.70;;;;;;;14.67;93.74;100200.09;5097199;28;20036;-71
2022/06/09 02:32:42;;;;;;;8.55;5.88;;;;;;;14.67;93.62;100200.91;5090450;28;20102;-71
2022/06/09 02:35:08;;;;;;;7.13;5.60;;;;;;;14.65;93.96;100197.63;5074699;28;20040;-71
2022/06/09 02:37:34;;;;;;;7.57;5.57;;;;;;;14.65;93.80;100194.88;5073152;28;20054;-70
2022/06/09 02:39:59;;;;;;;8.10;4.97;;;;;;;14.69;94.21;100206.91;5073931;28;20063;-71
2022/06/09 02:42:25;;;;;;;7.18;5.60;;;;;;;14.73;94.12;100205.13;5085989;28;20048;-71
2022/06/09 02:44:51;;;;;;;7.03;5.80;;;;;;;14.76;93.93;100215.56;5093074;28;20494;-71
2022/06/09 02:47:17;;;;;;;7.47;6.00;;;;;;;14.78;93.59;100218.81;5094756;28;20417;-71
2022/06/09 02:49:44;;;;;;;8.50;6.30;;;;;;;14.77;93.73;100219.13;5081253;28;20036;-71
2022/06/09 02:52:10;;;;;;;6.60;5.88;;;;;;;14.76;93.83;100223.84;5074509;28;20135;-71
2022/06/09 02:54:35;;;;;;;8.98;6.78;;;;;;;14.78;94.00;100224.34;5073054;28;20135;-71
2022/06/09 02:57:01;;;;;;;8.10;5.97;;;;;;;14.82;94.27;100229.22;5074233;28;20430;-71
2022/06/09 02:59:26;;;;;;;9.52;6.95;;;;;;;14.84;93.90;100232.47;5084827;28;20073;-71
2022/06/09 03:01:52;;;;;;;8.02;6.45;;;;;;;14.78;93.70;100240.91;5094466;28;20126;-71
2022/06/09 03:04:17;;;;;;;10.05;6.47;;;;;;;14.80;93.73;100235.06;5093273;28;20036;-70
2022/06/09 03:06:43;;;;;;;7.15;6.18;;;;;;;14.83;94.33;100241.91;5087779;28;20089;-71
2022/06/09 03:09:09;;;;;;;11.63;6.55;;;;;;;14.81;93.93;100235.88;5082058;28;20127;-71
2022/06/09 03:11:34;;;;;;;8.05;6.65;;;;;;;14.82;93.65;100241.09;5078711;28;20413;-71
2022/06/09 03:14:00;;;;;;;9.18;7.25;;;;;;;14.82;93.97;100240.28;5094454;28;20050;-71
2022/06/09 03:16:25;;;;;;;10.27;7.90;;;;;;;14.74;94.29;100247.38;5094496;28;20032;-71
2022/06/09 03:18:51;;;;;;;12.38;9.02;;;;;;;14.72;94.50;100253.22;5092136;28;20089;-71
2022/06/09 03:21:16;;;;;;;12.50;9.07;;;;;;;14.69;94.46;100255.81;5094093;28;20039;-71
2022/06/09 03:23:42;;;;;;;12.80;8.98;;;;;;;14.73;94.25;100259.56;5074200;28;20036;-71
2022/06/09 03:26:08;;;;;;;13.98;9.85;;;;;;;14.75;93.84;100262.81;5072876;28;20048;-71
2022/06/09 03:28:34;;;;;;;12.55;10.27;;;;;;;14.73;94.22;100265.88;5087382;28;20447;-71
2022/06/09 03:31:00;;;;;;;14.50;10.52;;;;;;;14.72;94.24;100269.78;5089390;28;20360;-72
2022/06/09 03:33:26;;;;;;;13.35;9.82;;;;;;;14.73;94.99;100270.59;5083110;28;20563;-70
2022/06/09 03:35:51;;;;;;;13.65;10.30;;;;;;;14.73;95.23;100265.88;5082901;28;20063;-71
2022/06/09 03:38:17;;;;;;;13.20;9.27;;;;;;;14.74;94.53;100269.47;5079485;28;20036;-71
2022/06/09 03:40:43;;;;;;;16.08;10.70;;;;;;;14.73;95.06;100276.94;5086256;28;20049;-70
2022/06/09 03:43:08;;;;;;;13.25;9.52;;;;;;;14.68;95.15;100265.22;5086197;28;20040;-72
2022/06/09 03:45:34;;;;;;;11.30;8.85;;;;;;;14.72;95.21;100278.06;5078823;28;20086;-72
2022/06/09 03:48:01;;;;;;;14.13;9.20;;;;;;;14.78;94.99;100279.59;5077076;28;20130;-72
2022/06/09 03:50:29;;;;;;;10.40;7.95;;;;;;;14.82;95.27;100281.69;5081298;28;20648;-72
2022/06/09 03:52:55;;;;;;;13.00;8.45;;;;;;;14.87;95.41;100287.91;5086748;28;20064;-72
2022/06/09 03:55:21;;;;;;;9.65;7.47;;;;;;;14.88;95.20;100275.72;5091506;28;20028;-72
2022/06/09 03:57:47;;;;;;;9.18;7.57;;;;;;;14.88;95.43;100283.19;5084453;28;20174;-72
2022/06/09 04:00:16;;;;;;;9.18;7.07;;;;;;;14.83;95.73;100281.38;5084454;28;20127;-72
2022/06/09 04:02:42;;;;;;;7.65;6.03;;;;;;;14.80;95.57;100286.72;5086963;28;20074;-72
2022/06/09 04:05:08;;;;;;;5.75;5.13;;;;;;;14.81;94.73;100293.88;5076130;28;20067;-72
2022/06/09 04:07:34;;;;;;;5.60;4.68;;;;;;;14.82;95.72;100299.09;5077285;28;20052;-72
2022/06/09 04:09:59;;;;;;;4.90;4.38;;;;;;;14.85;95.22;100300.41;5092983;28;20044;-72
2022/06/09 04:12:25;;;;;;;5.10;4.60;;;;;;;14.86;95.09;100296.50;5082650;28;20363;-72
2022/06/09 04:14:51;;;;;;;5.03;4.25;;;;;;;14.87;95.20;100304.47;5074184;28;20506;-72
2022/06/09 04:17:17;;;;;;;4.60;4.07;;;;;;;14.84;95.40;100305.09;5079365;28;20051;-72
2022/06/09 04:19:42;;;;;;;4.35;3.95;;;;;;;14.82;94.87;100301.03;5075990;28;20080;-72
2022/06/09 04:22:08;;;;;;;4.18;3.70;;;;;;;14.80;94.87;100292.25;5081223;28;20036;-72
2022/06/09 04:24:34;;;;;;;4.75;3.80;;;;;;;14.82;94.98;100295.50;5074562;28;20144;-72
2022/06/09 04:26:59;;;;;;;4.18;3.78;;;;;;;14.87;94.87;100304.47;5084917;28;20040;-75
2022/06/09 04:29:25;;;;;;;4.13;3.75;;;;;;;14.97;94.11;100306.16;5090034;28;20038;-72
2022/06/09 04:31:51;;;;;;;4.10;3.72;;;;;;;15.22;94.26;100310.13;5077682;28;20063;-72
2022/06/09 04:34:16;;;;;;;3.85;3.40;;;;;;;15.35;94.38;100307.25;5072143;28;20518;-72
2022/06/09 04:36:42;;;;;;;3.88;3.58;;;;;;;15.44;94.21;100317.50;5073992;28;20036;-72
2022/06/09 04:39:08;;;;;;;4.70;3.90;;;;;;;15.47;93.39;100322.41;5083100;28;20074;-72
2022/06/09 04:41:36;;;;;;;3.58;3.28;;;;;;;15.50;93.21;100328.13;5084638;28;20047;-72
2022/06/09 04:44:02;;;;;;;3.85;3.55;;;;;;;15.50;93.13;100328.13;5092348;28;20380;-72
2022/06/09 04:46:28;;;;;;;3.92;3.58;;;;;;;15.52;92.29;100325.84;5090960;28;20043;-72
2022/06/09 04:48:53;;;;;;;3.83;3.53;;;;;;;15.48;92.80;100329.59;5082846;28;20056;-72
2022/06/09 04:51:20;;;;;;;4.10;3.70;;;;;;;15.55;92.62;100329.91;5074681;28;20041;-72
2022/06/09 04:53:47;;;;;;;3.80;3.50;;;;;;;15.52;91.87;100325.03;5087508;28;20048;-72
2022/06/09 04:56:14;;;;;;;4.20;3.80;;;;;;;15.50;92.29;100327.31;5075694;28;20483;-70
2022/06/09 04:58:40;;;;;;;3.92;3.60;;;;;;;15.47;92.18;100333.47;5071761;28;20043;-70
2022/06/09 05:01:06;;;;;;;3.72;3.35;;;;;;;15.42;91.71;100331.66;5077938;28;20045;-70
2022/06/09 05:03:33;;;;;;;3.67;3.33;;;;;;;15.41;90.96;100334.75;5088389;28;20040;-72
2022/06/09 05:05:59;;;;;;;3.55;3.25;;;;;;;15.45;91.38;100336.56;5087967;28;20039;-72
2022/06/09 05:08:24;;;;;;;4.18;3.53;;;;;;;15.44;91.31;100334.09;5083729;28;20550;-70
2022/06/09 05:10:50;;;;;;;4.18;3.53;;;;;;;15.41;91.83;100341.09;5091226;28;20384;-72
2022/06/09 05:13:16;;;;;;;3.55;3.22;;;;;;;15.42;91.30;100341.91;5080797;28;20135;-72
2022/06/09 05:15:53;;;;;;;3.67;3.17;;;;;;;15.39;91.17;100354.44;5075343;28;20044;-72
2022/06/09 05:18:21;;;;;;;3.45;3.15;;;;;;;15.39;91.31;100354.44;5074951;28;20051;-72
2022/06/09 05:20:48;;;;;;;4.40;3.53;;;;;;;15.39;90.93;100354.44;5071314;28;20037;-72
2022/06/09 05:23:14;;;;;;;3.50;3.13;;;;;;;15.34;91.59;100354.59;5083088;28;20047;-72
2022/06/09 05:25:40;;;;;;;3.20;2.92;;;;;;;15.35;90.72;100357.03;5086099;28;20506;-72
2022/06/09 05:28:05;;;;;;;3.30;2.97;;;;;;;15.28;91.20;100359.44;5079447;28;20066;-72
2022/06/09 05:30:31;;;;;;;3.50;3.13;;;;;;;15.28;91.11;100364.97;5085839;28;20090;-72
2022/06/09 05:32:57;;;;;;;3.05;2.80;;;;;;;15.29;90.43;100366.59;5079048;28;20071;-72
2022/06/09 05:35:22;;;;;;;3.97;3.17;;;;;;;15.31;90.69;100364.34;5076566;28;20039;-72
2022/06/09 05:46:04;;;;;;;3.25;2.97;;;;;;;15.34;90.42;100351.81;5070182;28;20037;-72
2022/06/09 05:48:30;;;;;;;3.53;3.20;;;;;;;15.39;90.77;100358.00;5103353;28;20051;-72
2022/06/09 05:50:56;;;;;;;3.92;3.53;;;;;;;15.45;90.37;100357.88;5068505;28;20048;-72
2022/06/09 05:53:21;;;;;;;3.67;3.35;;;;;;;15.50;89.95;100357.72;5073951;28;20071;-72
2022/06/09 05:55:47;;;;;;;3.90;3.33;;;;;;;15.57;89.99;100355.28;5077516;28;20033;-73
2022/06/09 05:58:13;;;;;;;3.95;3.15;;;;;;;15.76;89.73;100358.63;5089193;28;20040;-72
2022/06/09 06:00:41;;;;;;;4.28;3.20;;;;;;;16.01;89.69;100359.00;5089120;28;20055;-72
2022/06/09 06:03:08;;;;;;;4.05;3.25;;;;;;;16.10;89.02;100362.56;5077146;28;20486;-72
2022/06/09 06:08:18;;;;;;;4.88;3.50;;;;;;;16.12;88.46;100374.13;5084258;28;20522;-72
2022/06/09 06:10:44;;;;;;;5.20;3.75;;;;;;;16.13;87.75;100372.97;5074051;28;20063;-72
2022/06/09 06:13:10;;;;;;;4.63;3.95;;;;;;;16.19;87.95;100372.53;5078325;28;20036;-72
2022/06/09 06:15:35;;;;;;;3.92;3.53;;;;;;;16.19;87.42;100374.47;5076829;28;20144;-72
2022/06/09 06:18:02;;;;;;;4.07;3.67;;;;;;;16.14;88.16;100375.47;5084313;28;20131;-72
2022/06/09 06:20:32;;;;;;;4.47;3.90;;;;;;;16.13;87.28;100372.97;5074517;28;20037;-72
2022/06/09 06:22:57;;;;;;;3.85;3.47;;;;;;;16.11;86.98;100384.38;5076776;28;20036;-72
2022/06/09 06:25:24;;;;;;;4.40;3.55;;;;;;;16.15;86.89;100388.16;5079640;28;20036;-72
2022/06/09 06:27:50;;;;;;;4.25;3.88;;;;;;;16.17;86.87;100390.59;5071623;28;20051;-72
2022/06/09 06:30:16;;;;;;;4.20;3.25;;;;;;;16.14;86.75;100394.00;5068847;28;20039;-72
2022/06/09 06:32:42;;;;;;;5.22;3.70;;;;;;;16.06;86.25;100390.09;5077501;28;20134;-72
2022/06/09 06:35:08;;;;;;;5.05;3.92;;;;;;;16.05;86.79;100401.47;5084436;28;20174;-72
2022/06/09 06:37:34;;;;;;;4.10;3.55;;;;;;;15.97;86.30;100398.41;5079749;28;20040;-72
2022/06/09 06:40:00;;;;;;;3.67;3.38;;;;;;;16.05;86.12;100394.00;5089867;28;20042;-72
2022/06/09 06:42:25;;;;;;;4.22;3.55;;;;;;;16.17;86.10;100394.19;5077614;28;20035;-72
2022/06/09 06:44:51;;;;;;;4.88;3.75;;;;;;;16.35;85.80;100402.50;5081886;28;20040;-72
2022/06/09 06:47:17;;;;;;;3.97;3.25;;;;;;;16.70;85.26;100403.31;5080475;28;20064;-72
2022/06/09 06:49:42;;;;;;;5.47;2.88;;;;;;;17.28;84.83;100404.63;5072000;28;20411;-72
2022/06/09 06:52:08;;;;;;;4.07;3.30;;;;;;;17.54;82.92;100410.91;5073371;28;20054;-70
2022/06/09 06:54:33;;;;;;;4.10;3.70;;;;;;;17.59;81.61;100413.50;5074498;28;20044;-72
2022/06/09 06:56:59;;;;;;;4.10;3.30;;;;;;;17.56;80.87;100414.16;5070090;28;20036;-72
2022/06/09 06:59:24;;;;;;;4.28;3.70;;;;;;;17.55;80.20;100415.31;5070410;28;20135;-72
2022/06/09 07:01:50;;;;;;;4.30;3.55;;;;;;;17.52;79.91;100417.91;5076141;28;20086;-72
2022/06/09 07:04:16;;;;;;;4.25;3.83;;;;;;;17.43;79.60;100427.09;5094410;28;20415;-72
2022/06/09 07:06:41;;;;;;;4.20;3.80;;;;;;;17.55;79.61;100412.53;5092036;28;20093;-72
2022/06/09 07:09:07;;;;;;;3.72;2.90;;;;;;;17.86;79.02;100414.19;5092040;28;20081;-72
2022/06/09 07:11:33;;;;;;;3.25;2.63;;;;;;;18.15;77.75;100418.91;5083823;28;20047;-72
2022/06/09 07:13:59;;;;;;;3.00;2.70;;;;;;;18.49;76.55;100417.84;5079962;28;20047;-72
2022/06/09 07:16:24;;;;;;;2.65;2.45;;;;;;;18.94;75.90;100421.53;5081113;28;20036;-73
2022/06/09 07:18:50;;;;;;;2.75;2.55;;;;;;;19.18;74.22;100425.53;5075309;28;20140;-70
2022/06/09 07:21:16;;;;;;;3.33;2.80;;;;;;;19.11;73.85;100430.88;5086435;28;20739;-70
2022/06/09 07:23:42;;;;;;;3.88;2.97;;;;;;;18.95;73.17;100430.69;5094105;28;20040;-70
2022/06/09 07:26:07;;;;;;;2.72;2.50;;;;;;;18.68;73.68;100432.91;5084288;28;20417;-71
2022/06/09 07:28:33;;;;;;;3.85;3.00;;;;;;;18.70;73.94;100446.44;5090011;28;20067;-71
2022/06/09 07:31:00;;;;;;;3.15;2.85;;;;;;;18.90;73.91;100442.81;5073731;28;20043;-72
2022/06/09 07:33:29;;;;;;;2.50;2.30;;;;;;;19.15;73.25;100446.50;5075136;28;20029;-71
2022/06/09 07:35:56;;;;;;;2.55;2.20;;;;;;;19.58;72.48;100446.03;5075421;28;20040;-71
2022/06/09 07:38:22;;;;;;;2.45;2.20;;;;;;;19.85;71.15;100438.16;5092090;28;20044;-71
2022/06/09 07:40:48;;;;;;;2.75;2.55;;;;;;;20.03;70.14;100431.19;5078957;28;20391;-72
2022/06/09 07:43:14;;;;;;;2.45;2.25;;;;;;;20.13;68.15;100436.31;5081822;28;20047;-71
2022/06/09 07:45:40;;;;;;;2.63;2.40;;;;;;;19.91;68.06;100439.56;5089306;28;20101;-71
2022/06/09 07:48:06;;;;;;;4.05;2.67;;;;;;;19.94;68.44;100443.59;5082414;28;20110;-71
2022/06/09 07:50:32;;;;;;;2.28;1.98;;;;;;;20.12;68.44;100434.66;5088343;28;20032;-71
2022/06/09 07:52:58;;;;;;;2.50;2.30;;;;;;;20.33;67.13;100436.50;5074060;28;20420;-71
2022/06/09 07:55:24;;;;;;;3.05;2.20;;;;;;;20.59;66.00;100442.47;5075195;28;20033;-71
2022/06/09 07:57:51;;;;;;;2.20;2.00;;;;;;;20.87;64.42;100439.72;5067217;28;20075;-71
2022/06/09 08:00:18;;;;;;;1.98;1.88;;;;;;;20.89;63.04;100442.16;5072012;28;20048;-71
2022/06/09 08:02:43;;;;;;;3.22;2.83;;;;;;;20.80;62.87;100447.03;5090288;28;20036;-71
2022/06/09 08:05:11;;;;;;;2.30;2.10;;;;;;;20.62;62.48;100450.13;5081352;28;20170;-71
2022/06/09 08:07:37;;;;;;;2.47;2.08;;;;;;;20.55;63.61;100447.16;5072630;28;20044;-71
2022/06/09 08:10:05;;;;;;;4.45;2.13;;;;;;;20.60;63.38;100452.47;5090399;28;20063;-71
2022/06/09 08:12:30;;;;;;;3.65;2.25;;;;;;;20.67;62.96;100463.03;5079328;28;20027;-71
2022/06/09 08:14:56;;;;;;;2.53;2.10;;;;;;;20.56;63.47;100461.91;5087059;28;20047;-71
2022/06/09 08:17:22;;;;;;;2.30;2.10;;;;;;;20.69;64.03;100458.72;5074672;28;20045;-71
2022/06/09 08:19:48;;;;;;;2.28;1.83;;;;;;;21.00;62.12;100457.19;5091838;28;20036;-71
2022/06/09 08:22:14;;;;;;;2.08;1.92;;;;;;;21.24;61.24;100457.09;5076183;28;20036;-71
2022/06/09 08:24:39;;;;;;;3.30;2.10;;;;;;;21.33;60.85;100462.50;5078660;28;20127;-71
2022/06/09 08:27:05;;;;;;;2.92;1.83;;;;;;;21.50;60.38;100467.75;5070269;28;20089;-71
2022/06/09 08:29:31;;;;;;;2.60;2.40;;;;;;;21.84;58.97;100462.63;5081149;28;20039;-71
2022/06/09 08:31:57;;;;;;;2.45;1.80;;;;;;;22.12;58.24;100462.53;5077350;28;20188;-71
2022/06/09 08:34:23;;;;;;;1.55;1.45;;;;;;;22.40;57.24;100471.59;5087294;28;20040;-71
2022/06/09 08:36:49;;;;;;;3.25;1.58;;;;;;;22.74;56.54;100467.13;5082588;28;20055;-71
2022/06/09 08:39:14;;;;;;;1.73;1.58;;;;;;;23.00;55.11;100468.47;5092541;28;20453;-71
2022/06/09 08:42:06;;;;;;;1.85;1.58;;;;;;;22.94;53.76;100465.19;5076500;28;20068;-71
2022/06/09 08:44:39;;;;;;;3.20;1.85;;;;;;;22.78;54.18;100461.63;5075004;28;20036;-71
2022/06/09 08:47:31;;;;;;;2.28;1.65;;;;;;;22.70;54.63;100466.22;5082279;28;20452;-71
2022/06/09 08:50:19;;;;;;;2.90;2.22;;;;;;;22.55;54.84;100467.91;5086062;28;20074;-72
2022/06/09 08:52:48;;;;;;;3.70;2.20;;;;;;;22.41;54.35;100470.41;5071504;28;20033;-70
2022/06/09 08:55:26;;;;;;;3.78;2.35;;;;;;;22.38;55.11;100476.72;5087753;28;20383;-72
2022/06/09 08:57:55;;;;;;;4.55;2.25;;;;;;;22.31;54.99;100476.56;5091833;28;20130;-72
2022/06/09 09:00:23;;;;;;;3.65;2.88;;;;;;;22.33;55.00;100474.22;5079447;28;20410;-71
2022/06/09 09:02:57;;;;;;;3.47;2.88;;;;;;;22.16;55.72;100483.81;5078721;28;20567;-71
2022/06/09 09:05:36;;;;;;;3.22;2.50;;;;;;;21.91;55.85;100483.19;5079690;28;20037;-72
2022/06/09 09:08:03;;;;;;;3.42;2.95;;;;;;;21.84;56.10;100493.34;5079670;28;20063;-72
2022/06/09 09:10:39;;;;;;;5.88;3.20;;;;;;;21.75;55.99;100493.53;5082831;28;20097;-71
2022/06/09 09:13:27;;;;;;;3.05;2.65;;;;;;;21.65;56.66;100494.88;5073868;28;20170;-72
2022/06/09 09:16:02;;;;;;;2.92;2.63;;;;;;;21.57;56.91;100497.84;5077096;28;20036;-72
2022/06/09 09:18:35;;;;;;;5.78;3.30;;;;;;;21.70;57.32;100499.41;5070746;28;20102;-72
2022/06/09 09:21:10;;;;;;;3.65;3.22;;;;;;;21.65;56.38;100494.88;5087435;28;20040;-72
2022/06/09 09:23:42;;;;;;;5.22;2.85;;;;;;;21.56;56.73;100494.25;5075678;28;20036;-72
2022/06/09 09:26:29;;;;;;;3.10;2.58;;;;;;;21.41;57.02;100499.81;5090301;28;20039;-72
2022/06/09 09:29:18;;;;;;;4.07;3.22;;;;;;;21.31;57.37;100489.97;5071041;28;20048;-72
2022/06/09 09:31:50;;;;;;;3.83;3.30;;;;;;;21.08;57.96;100496.09;5074399;28;20069;-72
2022/06/09 09:34:22;;;;;;;4.40;2.75;;;;;;;20.85;58.16;100491.44;5086967;28;20039;-72
2022/06/09 09:36:54;;;;;;;5.97;3.55;;;;;;;20.71;58.96;100500.19;5088293;28;20541;-72
2022/06/09 09:39:35;;;;;;;4.78;3.40;;;;;;;20.57;58.69;100499.75;5073085;28;20124;-72
2022/06/09 09:42:14;;;;;;;3.67;3.38;;;;;;;20.36;59.37;100492.34;5078713;28;20029;-72
2022/06/09 09:44:41;;;;;;;4.20;3.38;;;;;;;20.19;60.34;100500.94;5071148;28;20043;-72
2022/06/09 09:47:07;;;;;;;5.03;3.28;;;;;;;20.10;60.46;100487.13;5072179;28;20047;-72
2022/06/09 09:49:48;;;;;;;4.07;3.30;;;;;;;20.03;60.97;100492.47;5072497;28;20123;-72
2022/06/09 09:52:37;;;;;;;4.30;3.30;;;;;;;19.93;61.09;100504.06;5091166;28;20545;-72
2022/06/09 09:55:03;;;;;;;;;;;;;;;19.87;60.97;100499.91;5076252;28;20052;-72
2022/06/09 09:57:29;;;;;;;4.07;3.30;;;;;;;19.85;61.18;100497.47;5070982;28;19920;-73
2022/06/09 09:59:57;;;;;;;3.85;3.30;;;;;;;19.89;61.48;100503.13;5088704;28;20423;-73
2022/06/09 10:08:40;;;;;;;4.15;3.00;;;;;;;19.99;60.75;100508.25;5073199;28;20037;-76
2022/06/09 10:14:03;;;;;;;6.55;3.58;;;;;;;19.85;61.30;100505.00;5055451;28;20070;-73
2022/06/09 10:16:31;;;;;;;5.13;3.33;;;;;;;19.79;61.47;100506.41;5080678;28;20131;-74
2022/06/09 10:19:01;;;;;;;5.15;4.30;;;;;;;19.70;61.74;100516.81;5073357;28;20045;-73
2022/06/09 10:21:26;;;;;;;3.42;3.13;;;;;;;19.61;61.79;100510.53;5086138;28;20039;-72
2022/06/09 10:24:02;;;;;;;4.13;3.70;;;;;;;19.63;62.70;100511.81;5087699;28;20044;-72
2022/06/09 10:26:31;;;;;;;5.00;3.20;;;;;;;19.66;62.78;100515.88;5087408;28;20067;-72
2022/06/09 10:29:14;;;;;;;4.30;3.47;;;;;;;19.76;62.50;100521.00;5110164;28;20043;-73
2022/06/09 10:31:53;;;;;;;5.63;3.40;;;;;;;19.80;61.88;100522.75;5110114;28;20478;-73
2022/06/09 10:34:19;;;;;;;3.50;3.15;;;;;;;19.84;62.13;100508.94;5111657;28;20073;-73
2022/06/09 10:36:48;;;;;;;3.70;2.83;;;;;;;19.84;61.61;100511.72;5083393;28;20075;-73
2022/06/09 10:39:23;;;;;;;5.32;3.03;;;;;;;19.88;61.68;100505.13;5094539;28;20048;-72
2022/06/09 10:42:03;;;;;;;4.72;3.45;;;;;;;20.04;61.53;100510.81;5090068;28;20422;-72
2022/06/09 10:44:31;;;;;;;5.60;3.80;;;;;;;20.16;61.47;100510.00;5079752;28;20032;-72
2022/06/09 10:55:33;;;;;;;3.35;3.05;;;;;;;20.28;61.80;100514.75;5093776;28;20040;-73
2022/06/09 10:58:08;;;;;;;4.32;3.70;;;;;;;20.27;61.27;100513.13;5076450;28;20036;-73
2022/06/09 11:00:37;;;;;;;3.63;3.08;;;;;;;20.24;60.96;100509.06;5091873;28;20044;-73
2022/06/09 11:03:06;;;;;;;;;;;;;;;20.21;60.57;100515.34;5091910;28;20032;-73
2022/06/09 11:05:53;;;;;;;5.68;3.10;;;;;;;20.25;60.61;100515.44;5094506;28;19927;-73
2022/06/09 11:08:26;;;;;;;4.95;3.15;;;;;;;20.23;60.76;100524.16;5093200;28;20050;-73
2022/06/09 11:11:31;;;;;;;4.47;3.80;;;;;;;20.22;60.85;100514.16;5093374;28;20074;-73
2022/06/09 11:14:02;;;;;;;4.97;3.35;;;;;;;20.15;60.51;100525.91;5079585;28;20522;-73
2022/06/09 11:16:42;;;;;;;4.93;4.20;;;;;;;20.07;60.73;100518.47;5072883;28;20048;-73
2022/06/09 11:19:23;;;;;;;4.32;3.72;;;;;;;20.04;61.18;100513.59;5074025;28;20055;-74
2022/06/09 11:22:08;;;;;;;5.97;3.95;;;;;;;20.05;61.15;100514.41;5072677;28;20040;-73
2022/06/09 11:24:40;;;;;;;4.20;3.78;;;;;;;20.03;61.17;100520.34;5072537;28;20415;-73
2022/06/09 11:27:27;;;;;;;8.00;4.00;;;;;;;20.03;60.86;100520.34;5072594;28;20048;-73
2022/06/09 11:30:06;;;;;;;5.88;4.25;;;;;;;19.95;61.49;100517.63;5077076;28;20495;-73
2022/06/09 11:32:49;;;;;;;5.63;4.60;;;;;;;19.93;61.29;100520.78;5055770;28;20044;-73
2022/06/09 11:35:49;;;;;;;6.03;4.40;;;;;;;19.94;62.54;100525.19;5073594;28;20086;-73
2022/06/09 11:38:36;;;;;;;6.75;5.13;;;;;;;19.96;62.85;100514.53;5073417;28;20052;-73
2022/06/09 11:41:23;;;;;;;6.10;4.93;;;;;;;19.93;62.90;100519.97;5073634;28;20121;-73
2022/06/09 11:43:49;;;;;;;7.43;5.30;;;;;;;19.85;63.60;100530.88;5055504;28;20048;-73
2022/06/09 11:46:23;;;;;;;7.95;5.10;;;;;;;19.79;63.92;100528.69;5076029;28;20509;-73
2022/06/09 11:48:52;;;;;;;7.88;5.55;;;;;;;19.71;64.00;100530.38;5070511;28;20040;-73
2022/06/09 11:51:20;;;;;;;5.60;4.63;;;;;;;19.69;64.52;100526.31;5071871;28;20049;-73
2022/06/09 11:53:52;;;;;;;7.47;5.70;;;;;;;19.70;64.61;100533.53;5071800;28;20503;-73
2022/06/09 11:59:11;;;;;;;7.32;5.28;;;;;;;19.60;64.62;100522.81;5075209;28;20131;-73
2022/06/09 12:01:40;;;;;;;7.20;5.47;;;;;;;19.66;64.73;100529.81;5055266;28;20040;-73
2022/06/09 12:04:38;;;;;;;6.55;4.95;;;;;;;19.64;64.67;100523.78;5073253;28;20070;-73
2022/06/09 12:07:12;;;;;;;6.30;5.43;;;;;;;19.62;64.55;100520.53;5073287;28;20127;-73